createdAt,value
2024-05-09T00:01:31.958Z,149.68
2024-05-09T00:04:07.632Z,152.97
2024-05-09T00:06:42.876Z,148.26
2024-05-09T00:09:20.827Z,142.10
2024-05-09T00:11:56.121Z,139.64
2024-05-09T00:14:31.356Z,138.39
2024-05-09T00:17:07.006Z,140.10
2024-05-09T00:19:47.054Z,137.76
2024-05-09T00:22:24.602Z,143.79
2024-05-09T00:25:02.442Z,144.21
2024-05-09T00:27:42.475Z,146.55
2024-05-09T00:30:24.435Z,155.30
2024-05-09T00:33:09.420Z,161.93
2024-05-09T00:35:45.802Z,155.91
2024-05-09T00:38:21.134Z,166.03
2024-05-09T00:40:58.987Z,162.92
2024-05-09T00:43:34.315Z,159.16
2024-05-09T00:46:10.101Z,153.93
2024-05-09T00:48:45.614Z,152.09
2024-05-09T00:51:21.146Z,148.01
2024-05-09T00:53:56.493Z,148.30
2024-05-09T00:56:38.240Z,146.14
2024-05-09T00:59:13.890Z,150.29
2024-05-09T01:01:50.302Z,151.32
2024-05-09T01:04:25.673Z,146.42
2024-05-09T01:07:00.809Z,150.01
2024-05-09T01:09:36.055Z,156.16
2024-05-09T01:12:14.160Z,166.60
2024-05-09T01:14:49.673Z,174.01
2024-05-09T01:17:25.015Z,163.93
2024-05-09T01:20:00.349Z,168.64
2024-05-09T01:22:38.543Z,160.87
2024-05-09T01:25:16.467Z,149.87
2024-05-09T01:27:51.633Z,148.80
2024-05-09T01:30:33.801Z,161.41
2024-05-09T01:33:12.546Z,163.18
2024-05-09T01:35:48.339Z,172.40
2024-05-09T01:38:23.583Z,162.49
2024-05-09T01:41:01.640Z,168.80
2024-05-09T01:43:36.806Z,169.76
2024-05-09T01:46:19.501Z,167.56
2024-05-09T01:48:54.647Z,165.55
2024-05-09T01:51:29.953Z,161.87
2024-05-09T01:54:06.041Z,163.07
2024-05-09T01:56:43.776Z,161.26
2024-05-09T01:59:18.990Z,162.13
2024-05-09T02:01:56.999Z,161.68
2024-05-09T02:04:33.384Z,155.94
2024-05-09T02:07:08.644Z,155.76
2024-05-09T02:09:43.944Z,158.51
2024-05-09T02:12:21.815Z,159.57
2024-05-09T02:14:57.067Z,155.68
2024-05-09T02:17:32.513Z,149.23
2024-05-09T02:20:13.215Z,165.82
2024-05-09T02:22:51.353Z,168.04
2024-05-09T02:25:29.582Z,163.97
2024-05-09T02:28:10.292Z,175.06
2024-05-09T02:30:45.434Z,168.97
2024-05-09T02:33:20.746Z,167.81
2024-05-09T02:35:55.911Z,158.27
2024-05-09T02:38:28.602Z,154.46
2024-05-09T02:41:03.888Z,153.35
2024-05-09T02:43:39.131Z,151.67
2024-05-09T02:46:14.276Z,159.23
2024-05-09T02:48:46.862Z,165.39
2024-05-09T02:51:22.078Z,167.45
2024-05-09T02:53:54.674Z,164.73
2024-05-09T02:56:29.941Z,167.59
2024-05-09T02:59:05.246Z,167.99
2024-05-09T03:01:40.499Z,171.41
2024-05-09T03:04:13.081Z,176.28
2024-05-09T03:06:48.297Z,169.30
2024-05-09T03:09:21.614Z,171.72
2024-05-09T03:11:56.922Z,168.45
2024-05-09T03:14:32.243Z,171.57
2024-05-09T03:17:07.862Z,176.95
2024-05-09T03:19:40.460Z,170.10
2024-05-09T03:22:15.627Z,164.04
2024-05-09T03:24:48.061Z,162.90
2024-05-09T03:27:24.938Z,163.33
2024-05-09T03:30:00.093Z,174.04
2024-05-09T03:32:35.463Z,166.37
2024-05-09T03:35:08.150Z,163.73
2024-05-09T03:37:43.312Z,166.23
2024-05-09T03:40:23.652Z,159.12
2024-05-09T03:43:01.623Z,157.83
2024-05-09T03:45:39.395Z,163.78
2024-05-09T03:48:12.217Z,167.09
2024-05-09T03:50:48.001Z,167.11
2024-05-09T03:53:20.671Z,174.70
2024-05-09T03:55:56.990Z,176.32
2024-05-09T03:58:29.625Z,172.25
2024-05-09T04:01:10.164Z,165.93
2024-05-09T04:03:42.904Z,168.02
2024-05-09T04:06:23.719Z,164.10
2024-05-09T04:08:56.273Z,169.57
2024-05-09T04:11:31.622Z,173.52
2024-05-09T04:14:06.693Z,169.85
2024-05-09T04:16:44.660Z,166.18
2024-05-09T04:19:17.536Z,164.76
2024-05-09T04:21:53.029Z,158.86
2024-05-09T04:24:25.646Z,156.39
2024-05-09T04:27:00.831Z,158.77
2024-05-09T04:29:37.463Z,161.01
2024-05-09T04:32:15.406Z,155.80
2024-05-09T04:34:47.959Z,155.02
2024-05-09T04:37:23.223Z,152.74
2024-05-09T04:39:55.763Z,149.94
2024-05-09T04:42:30.928Z,149.16
2024-05-09T04:45:03.865Z,149.57
2024-05-09T04:47:41.959Z,150.16
2024-05-09T04:50:21.215Z,150.61
2024-05-09T04:53:05.123Z,154.81
2024-05-09T04:55:38.263Z,158.18
2024-05-09T04:58:14.259Z,173.28
2024-05-09T05:00:48.490Z,181.76
2024-05-09T05:03:26.524Z,173.21
2024-05-09T05:05:59.199Z,175.12
2024-05-09T05:08:34.644Z,183.05
2024-05-09T05:11:07.321Z,188.08
2024-05-09T05:13:42.502Z,182.62
2024-05-09T05:16:19.443Z,187.51
2024-05-09T05:18:54.815Z,179.84
2024-05-09T05:21:30.281Z,187.00
2024-05-09T05:24:02.856Z,181.98
2024-05-09T05:26:39.096Z,177.01
2024-05-09T05:29:11.743Z,178.65
2024-05-09T05:31:46.986Z,181.27
2024-05-09T05:34:22.337Z,188.96
2024-05-09T05:36:57.528Z,179.86
2024-05-09T05:39:30.133Z,181.98
2024-05-09T05:42:05.390Z,190.31
2024-05-09T05:44:38.828Z,207.71
2024-05-09T05:47:14.040Z,238.70
2024-05-09T05:49:49.359Z,281.92
2024-05-09T05:52:27.748Z,287.97
2024-05-09T05:55:00.353Z,297.97
2024-05-09T05:57:35.575Z,308.10
2024-05-09T06:00:09.833Z,300.67
2024-05-09T06:02:48.910Z,296.94
2024-05-09T06:05:26.043Z,294.25
2024-05-09T06:08:02.830Z,300.84
2024-05-09T06:10:39.199Z,291.77
2024-05-09T06:13:18.484Z,281.08
2024-05-09T06:15:50.912Z,287.39
2024-05-09T06:18:26.319Z,298.94
2024-05-09T06:21:01.872Z,306.76
2024-05-09T06:23:37.172Z,313.79
2024-05-09T06:26:10.364Z,308.77
2024-05-09T06:28:45.633Z,301.89
2024-05-09T06:31:18.182Z,300.06
2024-05-09T06:33:53.741Z,309.91
2024-05-09T06:36:31.281Z,324.05
2024-05-09T06:39:06.753Z,323.37
2024-05-09T06:41:41.648Z,320.08
2024-05-09T06:44:17.044Z,321.27
2024-05-09T06:46:49.759Z,308.39
2024-05-09T06:49:29.100Z,309.00
2024-05-09T06:52:04.942Z,308.94
2024-05-09T06:54:40.294Z,310.55
2024-05-09T06:57:12.994Z,325.12
2024-05-09T06:59:51.271Z,325.14
2024-05-09T07:02:23.847Z,320.20
2024-05-09T07:04:59.224Z,325.38
2024-05-09T07:07:34.446Z,322.14
2024-05-09T07:10:14.852Z,316.73
2024-05-09T07:12:50.910Z,309.07
2024-05-09T07:15:26.057Z,306.19
2024-05-09T07:17:58.753Z,309.71
2024-05-09T07:20:36.472Z,310.62
2024-05-09T07:23:12.925Z,307.23
2024-05-09T07:25:48.515Z,315.34
2024-05-09T07:28:21.676Z,308.71
2024-05-09T07:30:56.859Z,312.26
2024-05-09T07:33:29.473Z,309.98
2024-05-09T07:36:04.758Z,317.96
2024-05-09T07:38:39.936Z,317.23
2024-05-09T07:41:15.241Z,328.66
2024-05-09T07:43:48.852Z,326.27
2024-05-09T07:47:17.267Z,325.64
2024-05-09T07:50:55.810Z,320.47
2024-05-09T07:53:29.717Z,326.60
2024-05-09T07:55:09.100Z,330.68
2024-05-09T07:57:44.318Z,326.29
2024-05-09T08:00:23.520Z,318.92
2024-05-09T08:03:02.267Z,331.54
2024-05-09T08:05:34.938Z,330.28
2024-05-09T08:08:11.414Z,327.68
2024-05-09T08:10:46.719Z,337.97
2024-05-09T08:13:22.180Z,332.14
2024-05-09T08:15:54.807Z,334.86
2024-05-09T08:18:30.288Z,331.80
2024-05-09T08:21:02.958Z,334.94
2024-05-09T08:23:40.343Z,334.82
2024-05-09T08:26:18.098Z,335.60
2024-05-09T08:28:50.603Z,329.64
2024-05-09T08:31:25.947Z,327.92
2024-05-09T08:33:58.869Z,331.73
2024-05-09T08:36:34.542Z,340.15
2024-05-09T08:39:07.096Z,334.95
2024-05-09T08:41:46.068Z,320.28
2024-05-09T08:44:19.308Z,313.68
2024-05-09T08:46:54.795Z,305.09
2024-05-09T08:49:27.411Z,294.50
2024-05-09T08:52:02.700Z,282.92
2024-05-09T08:54:35.695Z,241.87
2024-05-09T08:57:16.310Z,237.78
2024-05-09T08:59:50.989Z,246.25
2024-05-09T09:02:27.157Z,268.22
2024-05-09T09:05:06.297Z,284.09
2024-05-09T09:07:42.516Z,268.63
2024-05-09T09:10:24.900Z,264.25
2024-05-09T09:13:09.926Z,273.14
2024-05-09T09:15:50.051Z,265.88
2024-05-09T09:18:29.344Z,266.55
2024-05-09T09:21:02.959Z,274.13
2024-05-09T09:23:38.287Z,274.71
2024-05-09T09:26:16.152Z,280.83
2024-05-09T09:28:54.835Z,277.58
2024-05-09T09:31:27.462Z,280.25
2024-05-09T09:34:10.041Z,286.79
2024-05-09T09:36:44.435Z,290.35
2024-05-09T09:39:23.269Z,287.22
2024-05-09T09:41:58.983Z,276.40
2024-05-09T09:44:39.575Z,284.56
2024-05-09T09:47:17.766Z,290.14
2024-05-09T09:49:53.913Z,286.38
2024-05-09T09:52:28.296Z,291.07
2024-05-09T09:55:04.834Z,284.66
2024-05-09T09:57:40.428Z,273.28
2024-05-09T10:00:24.622Z,263.04
2024-05-09T10:03:02.985Z,260.06
2024-05-09T10:05:44.003Z,267.58
2024-05-09T10:08:22.173Z,252.77
2024-05-09T10:10:55.708Z,263.12
2024-05-09T10:13:36.555Z,253.79
2024-05-09T10:16:12.476Z,239.86
2024-05-09T10:18:47.832Z,245.36
2024-05-09T10:21:21.465Z,252.57
2024-05-09T10:24:01.532Z,248.23
2024-05-09T10:26:36.006Z,247.94
2024-05-09T10:29:15.684Z,255.44
2024-05-09T10:31:50.903Z,234.73
2024-05-09T10:34:26.903Z,233.28
2024-05-09T10:37:02.771Z,243.38
2024-05-09T10:39:42.819Z,246.97
2024-05-09T10:42:19.913Z,241.90
2024-05-09T10:44:55.427Z,253.48
2024-05-09T10:47:30.673Z,246.92
2024-05-09T10:50:15.672Z,243.71
2024-05-09T10:52:54.852Z,235.29
2024-05-09T10:55:30.993Z,219.10
2024-05-09T10:58:16.008Z,204.17
2024-05-09T11:00:52.358Z,175.30
2024-05-09T11:03:28.178Z,141.59
2024-05-09T11:06:04.095Z,127.35
2024-05-09T11:08:37.288Z,125.02
2024-05-09T11:11:13.737Z,145.27
2024-05-09T11:13:46.228Z,162.47
2024-05-09T11:16:22.689Z,166.57
2024-05-09T11:18:59.035Z,155.85
2024-05-09T11:21:34.962Z,135.25
2024-05-09T11:24:11.012Z,125.76
2024-05-09T11:26:46.691Z,127.46
2024-05-09T11:29:19.838Z,127.08
2024-05-09T11:32:00.278Z,129.96
2024-05-09T11:34:35.730Z,130.71
2024-05-09T11:37:13.407Z,130.49
2024-05-09T11:39:46.049Z,117.14
2024-05-09T11:42:22.525Z,106.21
2024-05-09T11:44:54.997Z,127.95
2024-05-09T11:47:30.625Z,126.00
2024-05-09T11:50:08.225Z,115.62
2024-05-09T11:52:45.410Z,117.91
2024-05-09T11:55:18.874Z,115.22
2024-05-09T11:57:54.396Z,111.62
2024-05-09T12:00:34.106Z,109.43
2024-05-09T12:03:12.396Z,107.78
2024-05-09T12:05:47.651Z,98.75
2024-05-09T12:08:23.105Z,104.46
2024-05-09T12:10:56.039Z,100.58
2024-05-09T12:13:33.910Z,115.23
2024-05-09T12:16:07.119Z,119.32
2024-05-09T12:18:42.463Z,116.81
2024-05-09T12:21:17.676Z,111.01
2024-05-09T12:23:52.865Z,102.01
2024-05-09T12:26:25.631Z,101.06
2024-05-09T12:29:00.823Z,111.03
2024-05-09T12:31:33.542Z,113.17
2024-05-09T12:34:08.824Z,112.09
2024-05-09T12:36:44.173Z,115.06
2024-05-09T12:39:19.432Z,118.66
2024-05-09T12:41:52.178Z,120.99
2024-05-09T12:44:27.323Z,114.25
2024-05-09T12:47:00.074Z,108.94
2024-05-09T12:49:35.602Z,120.93
2024-05-09T12:52:10.909Z,119.72
2024-05-09T12:54:46.264Z,116.73
2024-05-09T12:57:18.870Z,113.72
2024-05-09T12:59:54.204Z,112.71
2024-05-09T13:02:26.788Z,105.64
2024-05-09T13:05:02.236Z,96.01
2024-05-09T13:07:38.647Z,114.89
2024-05-09T13:10:19.815Z,106.99
2024-05-09T13:12:55.658Z,99.03
2024-05-09T13:15:31.580Z,109.99
2024-05-09T13:18:05.257Z,118.21
2024-05-09T13:20:40.599Z,126.08
2024-05-09T13:23:15.758Z,130.55
2024-05-09T13:25:50.962Z,116.36
2024-05-09T13:28:23.636Z,123.88
2024-05-09T13:30:58.964Z,121.77
2024-05-09T13:33:33.454Z,114.91
2024-05-09T13:36:09.999Z,108.89
2024-05-09T13:38:45.247Z,100.79
2024-05-09T13:41:20.438Z,93.33
2024-05-09T13:43:53.694Z,86.09
2024-05-09T13:46:28.954Z,89.86
2024-05-09T13:49:03.322Z,98.39
2024-05-09T13:51:38.553Z,93.39
2024-05-09T13:54:14.059Z,91.25
2024-05-09T13:56:49.184Z,89.42
2024-05-09T13:59:21.658Z,91.04
2024-05-09T14:01:59.451Z,85.86
2024-05-09T14:04:32.486Z,83.23
2024-05-09T14:07:10.223Z,90.02
2024-05-09T14:09:47.210Z,80.83
2024-05-09T14:12:22.415Z,69.03
2024-05-09T14:14:56.551Z,74.56
2024-05-09T14:17:31.943Z,69.63
2024-05-09T14:20:06.260Z,69.38
2024-05-09T14:22:43.347Z,65.18
2024-05-09T14:25:18.753Z,67.46
2024-05-09T14:27:54.320Z,64.93
2024-05-09T14:30:34.821Z,57.49
2024-05-09T14:33:16.434Z,62.12
2024-05-09T14:35:49.205Z,73.11
2024-05-09T14:38:24.490Z,76.37
2024-05-09T14:40:59.607Z,62.44
2024-05-09T14:43:34.892Z,50.14
2024-05-09T14:46:07.608Z,45.88
2024-05-09T14:48:43.207Z,49.61
2024-05-09T14:51:16.564Z,55.58
2024-05-09T14:53:51.757Z,58.11
2024-05-09T14:56:26.894Z,73.32
2024-05-09T14:59:02.135Z,85.99
2024-05-09T15:01:37.663Z,72.64
2024-05-09T15:04:12.894Z,64.79
2024-05-09T15:06:45.859Z,74.77
2024-05-09T15:09:21.160Z,83.70
2024-05-09T15:11:56.554Z,79.17
2024-05-09T15:14:33.932Z,87.06
2024-05-09T15:17:06.513Z,89.29
2024-05-09T15:19:41.851Z,93.32
2024-05-09T15:22:16.491Z,92.31
2024-05-09T15:24:53.878Z,91.10
2024-05-09T15:27:29.072Z,97.03
2024-05-09T15:30:06.936Z,91.42
2024-05-09T15:32:42.826Z,89.00
2024-05-09T15:35:18.071Z,85.72
2024-05-09T15:37:50.751Z,87.62
2024-05-09T15:40:35.914Z,100.23
2024-05-09T15:43:15.000Z,95.83
2024-05-09T15:45:50.328Z,94.63
2024-05-09T15:48:23.149Z,98.10
2024-05-09T15:50:58.510Z,102.40
2024-05-09T15:53:31.092Z,113.23
2024-05-09T15:56:06.401Z,123.86
2024-05-09T15:58:41.690Z,126.16
2024-05-09T16:01:17.000Z,113.44
2024-05-09T16:03:50.073Z,113.34
2024-05-09T16:06:26.141Z,126.91
2024-05-09T16:08:58.813Z,125.57
2024-05-09T16:11:33.992Z,123.91
2024-05-09T16:14:09.258Z,131.44
2024-05-09T16:16:44.889Z,132.33
2024-05-09T16:19:17.516Z,124.17
2024-05-09T16:21:52.731Z,129.59
2024-05-09T16:24:25.230Z,131.01
2024-05-09T16:27:00.933Z,143.90
2024-05-09T16:29:36.406Z,140.02
2024-05-09T16:32:11.615Z,140.04
2024-05-09T16:34:44.114Z,146.41
2024-05-09T16:37:19.404Z,155.22
2024-05-09T16:39:51.971Z,151.52
2024-05-09T16:42:27.177Z,151.04
2024-05-09T16:45:05.112Z,162.10
2024-05-09T16:47:41.177Z,169.45
2024-05-09T16:50:19.230Z,169.53
2024-05-09T16:53:00.114Z,164.75
2024-05-09T16:55:32.987Z,184.75
2024-05-09T16:58:12.640Z,200.91
2024-05-09T17:00:48.177Z,184.00
2024-05-09T17:03:25.058Z,182.74
2024-05-09T17:05:57.993Z,206.01
2024-05-09T17:08:33.247Z,187.86
2024-05-09T17:11:05.817Z,201.19
2024-05-09T17:13:41.173Z,173.82
2024-05-09T17:16:20.924Z,164.90
2024-05-09T17:18:56.278Z,180.48
2024-05-09T17:21:28.810Z,175.81
2024-05-09T17:24:03.932Z,218.24
2024-05-09T17:26:37.155Z,227.36
2024-05-09T17:29:13.037Z,218.19
2024-05-09T17:31:48.161Z,189.17
2024-05-09T17:34:23.384Z,178.78
2024-05-09T17:36:56.221Z,171.85
2024-05-09T17:39:31.404Z,173.92
2024-05-09T17:42:04.275Z,158.58
2024-05-09T17:44:39.411Z,168.72
2024-05-09T17:47:14.773Z,158.53
2024-05-09T17:49:50.038Z,162.38
2024-05-09T17:52:22.667Z,160.76
2024-05-09T17:54:58.499Z,151.13
2024-05-09T17:57:32.075Z,145.59
2024-05-09T18:00:11.525Z,149.88
2024-05-09T18:02:52.376Z,136.98
2024-05-09T18:05:29.078Z,149.02
2024-05-09T18:08:01.708Z,168.84
2024-05-09T18:10:39.759Z,154.62
2024-05-09T18:13:14.983Z,143.23
2024-05-09T18:15:50.383Z,142.61
2024-05-09T18:18:25.684Z,141.43
2024-05-09T18:21:00.931Z,135.10
2024-05-09T18:23:33.877Z,139.76
2024-05-09T18:26:09.141Z,132.07
2024-05-09T18:28:41.711Z,141.51
2024-05-09T18:31:18.229Z,135.07
2024-05-09T18:33:53.505Z,131.36
2024-05-09T18:36:29.617Z,126.48
2024-05-09T18:39:03.203Z,130.14
2024-05-09T18:41:38.303Z,129.07
2024-05-09T18:44:10.822Z,127.17
2024-05-09T18:46:48.256Z,127.65
2024-05-09T18:49:23.700Z,129.90
2024-05-09T18:52:02.037Z,130.55
2024-05-09T18:54:34.612Z,137.09
2024-05-09T18:57:09.919Z,137.06
2024-05-09T18:59:42.508Z,127.64
2024-05-09T19:02:18.149Z,138.89
2024-05-09T19:04:53.586Z,148.12
2024-05-09T19:07:28.852Z,159.35
2024-05-09T19:10:01.471Z,169.65
2024-05-09T19:12:36.685Z,166.48
2024-05-09T19:15:09.322Z,171.99
2024-05-09T19:17:44.863Z,178.64
2024-05-09T19:20:28.166Z,185.81
2024-05-09T19:23:07.921Z,186.07
2024-05-09T19:25:40.683Z,186.76
2024-05-09T19:28:15.932Z,189.66
2024-05-09T19:30:48.627Z,195.22
2024-05-09T19:33:23.973Z,195.10
2024-05-09T19:35:59.138Z,192.21
2024-05-09T19:38:34.754Z,197.12
2024-05-09T19:41:07.271Z,197.20
2024-05-09T19:43:42.725Z,200.29
2024-05-09T19:46:15.545Z,203.00
2024-05-09T19:48:51.049Z,208.64
2024-05-09T19:51:26.269Z,215.18
2024-05-09T19:54:01.372Z,218.99
2024-05-09T19:56:34.152Z,212.44
2024-05-09T19:59:09.515Z,212.65
2024-05-09T20:01:42.377Z,198.95
2024-05-09T20:04:17.808Z,209.78
2024-05-09T20:06:53.399Z,209.38
2024-05-09T20:09:28.510Z,207.39
2024-05-09T20:12:01.111Z,215.45
2024-05-09T20:14:36.261Z,213.58
2024-05-09T20:17:08.834Z,212.98
2024-05-09T20:19:46.081Z,215.50
2024-05-09T20:22:21.367Z,223.98
2024-05-09T20:24:56.771Z,214.45
2024-05-09T20:27:29.385Z,216.42
2024-05-09T20:30:09.732Z,209.82
2024-05-09T20:32:44.688Z,215.54
2024-05-09T20:35:19.832Z,211.09
2024-05-09T20:37:57.362Z,204.56
2024-05-09T20:40:37.146Z,211.46
2024-05-09T20:43:11.963Z,202.33
2024-05-09T20:45:47.510Z,206.40
2024-05-09T20:48:20.191Z,211.35
2024-05-09T20:50:55.438Z,206.58
2024-05-09T20:53:30.610Z,215.11
2024-05-09T20:56:05.793Z,210.18
2024-05-09T20:58:38.418Z,222.40
2024-05-09T21:01:15.845Z,216.02
2024-05-09T21:03:48.930Z,214.27
2024-05-09T21:06:24.318Z,214.24
2024-05-09T21:08:59.527Z,221.27
2024-05-09T21:11:34.902Z,229.47
2024-05-09T21:14:07.536Z,234.91
2024-05-09T21:16:42.716Z,232.05
2024-05-09T21:19:15.493Z,223.80
2024-05-09T21:21:51.902Z,227.59
2024-05-09T21:24:28.202Z,218.79
2024-05-09T21:27:03.329Z,221.32
2024-05-09T21:29:35.852Z,214.16
2024-05-09T21:32:11.478Z,233.40
2024-05-09T21:34:44.057Z,223.84
2024-05-09T21:37:19.332Z,223.55
2024-05-09T21:39:54.648Z,245.10
2024-05-09T21:42:29.825Z,236.23
2024-05-09T21:45:02.349Z,242.13
2024-05-09T21:47:37.774Z,241.57
2024-05-09T21:50:18.642Z,238.29
2024-05-09T21:52:58.477Z,244.96
2024-05-09T21:55:33.647Z,259.43
2024-05-09T21:58:08.818Z,256.52
2024-05-09T22:00:43.584Z,246.26
2024-05-09T22:03:18.906Z,250.94
2024-05-09T22:05:51.549Z,241.87
2024-05-09T22:08:26.724Z,240.77
2024-05-09T22:11:02.080Z,238.18
2024-05-09T22:13:37.331Z,233.78
2024-05-09T22:16:09.940Z,223.64
2024-05-09T22:18:45.326Z,224.19
2024-05-09T22:21:17.872Z,231.02
2024-05-09T22:23:53.184Z,239.06
2024-05-09T22:26:28.314Z,233.41
2024-05-09T22:29:03.488Z,240.57
2024-05-09T22:31:36.128Z,260.17
2024-05-09T22:34:11.402Z,249.66
2024-05-09T22:36:46.077Z,240.70
2024-05-09T22:39:23.247Z,238.88
2024-05-09T22:41:58.397Z,232.51
2024-05-09T22:44:34.079Z,239.19
2024-05-09T22:47:06.707Z,244.42
2024-05-09T22:49:41.914Z,240.99
2024-05-09T22:52:14.555Z,225.59
2024-05-09T22:54:49.776Z,219.41
2024-05-09T22:57:25.029Z,217.35
2024-05-09T23:00:00.270Z,220.85
2024-05-09T23:02:32.750Z,233.12
2024-05-09T23:05:08.516Z,233.01
2024-05-09T23:07:41.103Z,227.81
2024-05-09T23:10:21.480Z,235.80
2024-05-09T23:13:03.888Z,233.18
2024-05-09T23:15:40.187Z,246.28
2024-05-09T23:18:12.956Z,224.96
2024-05-09T23:20:48.268Z,218.85
2024-05-09T23:23:21.257Z,213.81
2024-05-09T23:25:56.409Z,216.55
2024-05-09T23:28:31.942Z,224.98
2024-05-09T23:31:07.933Z,227.79
2024-05-09T23:33:45.690Z,243.60
2024-05-09T23:36:21.000Z,248.04
2024-05-09T23:38:53.539Z,249.40
2024-05-09T23:41:29.041Z,251.42
2024-05-09T23:44:04.474Z,252.50
2024-05-09T23:46:39.844Z,251.97
2024-05-09T23:49:12.456Z,238.13
2024-05-09T23:51:47.749Z,247.26
2024-05-09T23:54:20.360Z,232.30
2024-05-09T23:56:55.628Z,227.35
2024-05-09T23:59:31.869Z,229.41
